History for KNYNEWYO154

Midtown, New York, NY — Current Conditions
Daily Summary for August 22, 2017
  Current: High: Low: Average:
Temperature: 82.2°F 82.9°F 81.0°F 81.9°F
Dew Point: 65.3°F 71.1°F 65.3°F 67.7°F
Humidity: 56% 67% 56% 62%
Wind Speed: - 0.0mph - 0.0mph
Wind Gust: - 0.0mph - -
Wind: North - - North
Pressure: 29.80in 30.10in 29.80in -
Precipitation: 0.00in      
Statistics for the rest of the month
    High: Low: Average:
Temperature:   83.3°F 76.5°F 80.2°F
Dew Point:   72.3°F 54.8°F 62.8°F
Humidity:   72.0% 41.0% 55.4%
Wind Speed:   0.0mph from the North - 0.0mph
Wind Gust:   0.0mph from the North - -
Wind:   - - North
Pressure:   30.25in 29.76in -
Precipitation:   0.00in    
KNYNEWYO154 Weather Graph
Tabular Data for August 22, 2017
Time Temp. Heat Index Dew Point Pressure Wind Gust Humidity Rainfall
00:19 81.3°F 83.6°F 66.9°F 30.10in - 61% -
00:26 81.3°F 83.6°F 66.9°F 30.10in - 61% -
00:39 81.3°F 83.6°F 66.9°F 30.09in - 61% -
00:49 81.3°F 83.6°F 66.9°F 30.09in - 61% -
01:09 81.3°F 83.6°F 66.9°F 30.08in - 61% -
01:19 81.3°F 83.8°F 67.3°F 30.08in - 62% -
01:29 81.3°F 83.8°F 67.3°F 30.08in - 62% -
01:39 81.3°F 83.8°F 67.3°F 30.07in - 62% -
02:00 81.5°F 84.1°F 67.5°F 30.06in - 62% -
02:10 81.5°F 84.1°F 67.5°F 30.07in - 62% -
02:30 81.5°F 84.1°F 67.5°F 30.06in - 62% -
02:40 81.5°F 84.2°F 68.0°F 30.06in - 63% -
03:00 81.5°F 84.2°F 68.0°F 30.06in - 63% -
03:10 81.5°F 84.2°F 68.0°F 30.06in - 63% -
03:30 81.5°F 84.2°F 68.0°F 30.04in - 63% -
03:40 81.5°F 84.4°F 68.4°F 30.04in - 64% -
04:15 81.5°F 84.4°F 68.4°F 30.04in - 64% -
04:35 81.5°F 84.4°F 68.4°F 30.04in - 64% -
04:45 81.5°F 84.6°F 68.9°F 30.04in - 65% -
05:05 81.5°F 84.6°F 68.9°F 30.03in - 65% -
05:15 81.5°F 84.6°F 68.9°F 30.03in - 65% -
05:35 81.5°F 84.6°F 68.9°F 30.03in - 65% -
05:45 81.5°F 84.6°F 68.9°F 30.03in - 65% -
06:05 81.5°F 84.6°F 68.9°F 30.03in - 65% -
06:15 81.5°F 84.8°F 69.3°F 30.03in - 66% -
06:35 81.5°F 84.8°F 69.3°F 30.04in - 66% -
06:46 81.5°F 84.8°F 69.3°F 30.03in - 66% -
07:06 81.5°F 84.8°F 69.3°F 30.03in - 66% -
07:16 81.5°F 84.8°F 69.3°F 30.03in - 66% -
07:46 81.5°F 84.8°F 69.3°F 30.03in - 66% -
08:16 81.7°F 85.1°F 69.5°F 30.03in - 66% -
08:36 81.5°F 84.6°F 68.9°F 30.02in - 65% -
08:46 81.3°F 84.3°F 68.7°F 30.02in - 65% -
09:06 81.1°F 83.6°F 67.6°F 30.02in - 63% -
09:16 81.1°F 83.6°F 67.6°F 30.01in - 63% -
09:36 81.0°F 83.4°F 67.0°F 30.01in - 62% -
09:46 81.0°F 83.4°F 67.0°F 30.01in - 62% -
10:16 81.0°F 83.2°F 66.5°F 30.00in - 61% -
10:46 81.3°F 84.1°F 68.2°F 29.99in - 64% -
10:56 81.3°F 84.1°F 68.2°F 29.99in - 64% -
11:16 81.9°F 85.2°F 69.2°F 29.99in - 65% -
11:46 82.2°F 85.7°F 69.6°F 29.97in - 65% -
12:16 82.6°F 86.6°F 70.3°F 29.96in - 66% -
12:26 82.6°F 86.6°F 70.3°F 29.96in - 66% -
12:46 82.9°F 87.4°F 71.1°F 29.95in - 67% -
13:16 82.4°F 85.6°F 68.8°F 29.94in - 63% -
13:26 82.4°F 85.6°F 68.8°F 29.94in - 63% -
13:46 81.9°F 84.5°F 67.4°F 29.93in - 61% -
13:56 81.9°F 84.5°F 67.4°F 29.93in - 61% -
14:16 81.7°F 83.8°F 66.3°F 29.91in - 59% -
14:26 81.7°F 83.8°F 66.3°F 29.91in - 59% -
14:46 81.7°F 83.7°F 65.8°F 29.88in - 58% -
14:56 81.7°F 83.7°F 65.8°F 29.88in - 58% -
15:17 81.9°F 83.9°F 66.0°F 29.86in - 58% -
15:27 81.9°F 83.9°F 66.0°F 29.86in - 58% -
15:47 82.0°F 84.1°F 66.1°F 29.84in - 58% -
15:57 82.0°F 84.1°F 66.1°F 29.84in - 58% -
16:17 82.4°F 84.4°F 66.0°F 29.83in - 57% -
16:47 82.4°F 84.2°F 65.5°F 29.82in - 56% -
16:56 82.4°F 84.2°F 65.5°F 29.82in - 56% -
17:17 82.4°F 84.2°F 65.5°F 29.81in - 56% -
17:26 82.4°F 84.2°F 65.5°F 29.81in - 56% -
17:47 82.2°F 84.0°F 65.3°F 29.80in - 56% -
17:56 82.2°F 84.0°F 65.3°F 29.80in - 56% -
Comma Delimited File
Powered by Weather Underground, Inc.